Time;durP1;ratioP1;P1;durP2;ratioP2;P2;SDS_P1;SDS_P2;PMS_P1;PMS_P2;Temp;Humidity;BMP_temperature;BMP_pressure;BME280_temperature;BME280_humidity;BME280_pressure;Samples;Min_cycle;Max_cycle;Signal;HPM_P1;HPM_P2
2022/10/12 00:01:40;;;;;;;57.22;43.92;;;15.70;99.90;;;;;;5013329;28;20042;-49
2022/10/12 00:04:06;;;;;;;60.03;45.03;;;15.80;99.90;;;;;;5020832;28;20127;-52
2022/10/12 00:06:32;;;;;;;52.03;40.42;;;15.80;99.90;;;;;;5030320;28;20486;-52
2022/10/12 00:08:58;;;;;;;63.30;41.65;;;15.80;99.90;;;;;;5023599;28;20087;-54
2022/10/12 00:11:26;;;;;;;52.42;40.65;;;15.90;99.90;;;;;;5016138;28;20034;-53
2022/10/12 00:13:53;;;;;;;49.67;39.72;;;15.90;99.90;;;;;;5018372;28;20370;-49
2022/10/12 00:16:20;;;;;;;50.45;40.05;;;16.00;99.90;;;;;;5019507;28;20124;-53
2022/10/12 00:18:54;;;;;;;54.03;40.47;;;16.10;99.90;;;;;;5027943;28;20041;-52
2022/10/12 00:21:20;;;;;;;51.65;38.85;;;16.00;99.90;;;;;;5020701;28;20029;-50
2022/10/12 00:23:46;;;;;;;49.72;39.22;;;16.10;99.90;;;;;;5017172;28;20084;-48
2022/10/12 00:26:20;;;;;;;49.50;38.50;;;16.10;99.90;;;;;;5017171;28;20043;-49
2022/10/12 00:28:47;;;;;;;50.58;40.05;;;16.10;99.90;;;;;;5012190;28;20444;-49
2022/10/12 00:31:16;;;;;;;52.70;40.42;;;16.10;99.90;;;;;;5019102;28;20028;-50
2022/10/12 00:33:42;;;;;;;48.17;40.20;;;16.10;99.90;;;;;;5025817;28;20036;-50
2022/10/12 00:36:14;;;;;;;48.55;40.65;;;16.20;99.90;;;;;;5013727;28;20456;-51
2022/10/12 00:38:40;;;;;;;49.67;38.53;;;16.20;99.90;;;;;;5020497;28;20037;-50
2022/10/12 00:41:06;;;;;;;48.55;38.75;;;16.30;99.90;;;;;;5020304;28;20397;-53
2022/10/12 00:43:38;;;;;;;49.65;39.88;;;16.40;99.90;;;;;;5025660;28;20022;-52
2022/10/12 00:46:29;;;;;;;;;;;16.30;99.90;;;;;;5012143;28;20065;-52
2022/10/12 00:49:04;;;;;;;45.88;37.55;;;16.30;99.90;;;;;;5010506;28;19917;-49
2022/10/12 00:51:30;;;;;;;53.03;36.60;;;16.30;99.90;;;;;;5017361;28;20469;-53
2022/10/12 00:54:02;;;;;;;51.55;37.05;;;16.20;99.90;;;;;;5024764;28;20109;-49
2022/10/12 00:56:32;;;;;;;50.67;39.95;;;16.10;99.90;;;;;;5018425;28;20022;-55
2022/10/12 00:59:01;;;;;;;53.55;39.88;;;16.10;99.90;;;;;;5023828;28;20037;-49
2022/10/12 01:01:28;;;;;;;46.65;38.90;;;16.00;99.90;;;;;;5018133;28;20034;-52
2022/10/12 01:03:54;;;;;;;46.33;37.45;;;16.10;99.90;;;;;;5018964;28;20037;-52
2022/10/12 01:06:20;;;;;;;51.80;39.10;;;16.10;99.90;;;;;;5017849;28;20400;-52
2022/10/12 01:08:46;;;;;;;50.20;39.47;;;16.20;99.90;;;;;;5021468;28;20437;-54
2022/10/12 01:11:12;;;;;;;46.97;40.05;;;16.20;99.90;;;;;;5017575;28;20453;-50
2022/10/12 01:13:37;;;;;;;47.90;38.65;;;16.20;99.90;;;;;;5019368;28;20022;-51
2022/10/12 01:16:09;;;;;;;52.10;39.10;;;16.20;99.90;;;;;;5020673;28;20060;-52
2022/10/12 01:18:59;;;;;;;51.25;39.35;;;16.10;99.90;;;;;;5021041;28;20053;-48
2022/10/12 01:21:26;;;;;;;49.63;38.95;;;16.00;99.90;;;;;;4971506;28;20086;-50
2022/10/12 01:24:15;;;;;;;48.85;38.67;;;16.20;99.90;;;;;;4975380;28;20054;-53
2022/10/12 01:26:53;;;;;;;53.83;39.58;;;16.20;99.90;;;;;;4978528;28;20411;-54
2022/10/12 01:29:31;;;;;;;56.55;39.80;;;16.30;99.90;;;;;;4970524;28;20594;-51
2022/10/12 01:32:05;;;;;;;53.97;37.65;;;16.40;99.90;;;;;;4971061;28;20085;-53
2022/10/12 01:34:45;;;;;;;50.60;37.75;;;16.40;99.90;;;;;;4953994;28;20070;-51
2022/10/12 01:37:36;;;;;;;54.20;38.38;;;16.40;99.90;;;;;;4974572;28;20125;-54
2022/10/12 01:40:07;;;;;;;55.13;39.85;;;16.40;99.90;;;;;;4972229;28;20034;-49
2022/10/12 01:42:38;;;;;;;58.78;43.28;;;16.30;99.90;;;;;;4975838;28;20045;-53
2022/10/12 01:45:12;;;;;;;51.88;38.65;;;16.30;99.90;;;;;;4973176;28;20130;-54
2022/10/12 01:47:40;;;;;;;47.35;38.42;;;16.20;99.90;;;;;;4975718;28;20082;-51
2022/10/12 01:50:09;;;;;;;52.30;39.88;;;16.00;99.90;;;;;;4971414;28;20462;-54
2022/10/12 01:52:59;;;;;;;48.22;38.97;;;15.90;99.90;;;;;;4973131;28;20450;-52
2022/10/12 01:55:53;;;;;;;50.25;37.58;;;16.10;99.90;;;;;;4972515;28;20482;-53
2022/10/12 01:58:19;;;;;;;45.70;37.53;;;16.20;99.90;;;;;;4994505;28;20041;-52
2022/10/12 02:01:03;;;;;;;46.92;39.50;;;16.30;99.90;;;;;;5035171;28;20030;-54
2022/10/12 02:03:47;;;;;;;51.65;39.00;;;16.50;99.90;;;;;;5011657;28;20535;-49
2022/10/12 02:06:18;;;;;;;43.80;37.30;;;16.50;99.90;;;;;;5019597;28;20083;-48
2022/10/12 02:08:59;;;;;;;48.45;38.10;;;16.50;99.90;;;;;;5020165;28;20073;-50
2022/10/12 02:11:26;;;;;;;52.58;38.33;;;16.60;99.90;;;;;;5015550;28;20038;-48
2022/10/12 02:14:17;;;;;;;47.75;36.80;;;16.60;99.90;;;;;;5017695;28;20033;-53
2022/10/12 02:16:55;;;;;;;45.17;37.67;;;16.60;99.90;;;;;;5020500;28;20025;-54
2022/10/12 02:19:27;;;;;;;47.92;37.92;;;16.60;99.90;;;;;;5025452;28;20041;-52
2022/10/12 02:21:56;;;;;;;45.20;35.38;;;16.60;99.90;;;;;;5027975;28;20492;-52
2022/10/12 02:24:22;;;;;;;50.55;37.10;;;16.60;99.90;;;;;;5018762;28;20113;-51
2022/10/12 02:26:52;;;;;;;47.30;37.33;;;16.60;99.90;;;;;;5022021;28;20037;-50
2022/10/12 02:29:26;;;;;;;43.22;36.60;;;16.60;99.90;;;;;;5016341;28;20484;-53
2022/10/12 02:31:52;;;;;;;44.08;36.28;;;16.60;99.90;;;;;;5024570;28;20042;-52
2022/10/12 02:34:33;;;;;;;44.83;36.13;;;16.60;99.90;;;;;;5018419;28;20029;-54
2022/10/12 02:37:08;;;;;;;41.00;36.30;;;16.60;99.90;;;;;;5016328;28;20109;-50
2022/10/12 02:39:53;;;;;;;46.65;37.35;;;16.60;99.90;;;;;;5018548;28;20025;-50
2022/10/12 02:42:29;;;;;;;49.95;35.53;;;16.60;99.90;;;;;;5021990;28;20071;-52
2022/10/12 02:44:58;;;;;;;45.88;36.28;;;16.60;99.90;;;;;;5025472;28;20061;-52
2022/10/12 02:47:27;;;;;;;42.53;35.22;;;16.60;99.90;;;;;;5026629;28;20045;-53
2022/10/12 02:49:54;;;;;;;45.63;36.85;;;16.60;99.90;;;;;;5022013;28;20030;-50
2022/10/12 02:52:21;;;;;;;46.53;36.30;;;16.70;99.90;;;;;;5024088;28;20073;-52
2022/10/12 02:54:47;;;;;;;47.42;36.60;;;16.70;99.90;;;;;;5018218;28;20024;-52
2022/10/12 02:57:13;;;;;;;44.85;36.58;;;16.60;99.90;;;;;;5012291;28;20105;-53
2022/10/12 02:59:38;;;;;;;45.70;35.90;;;16.60;99.90;;;;;;5021156;28;20120;-51
2022/10/12 03:02:04;;;;;;;41.80;36.10;;;16.60;99.90;;;;;;5016834;28;20041;-52
2022/10/12 03:04:30;;;;;;;48.00;37.03;;;16.70;99.90;;;;;;4997938;28;20038;-50
2022/10/12 03:06:56;;;;;;;47.38;36.25;;;16.60;99.90;;;;;;5018761;28;20037;-55
2022/10/12 03:09:21;;;;;;;49.67;38.47;;;16.60;99.90;;;;;;5028162;28;20103;-50
2022/10/12 03:11:47;;;;;;;51.28;38.20;;;16.60;99.90;;;;;;5023773;28;20107;-50
2022/10/12 03:14:14;;;;;;;46.60;36.42;;;16.50;99.90;;;;;;5020366;28;20037;-55
2022/10/12 03:16:40;;;;;;;50.00;38.25;;;16.40;99.90;;;;;;5022514;28;20038;-52
2022/10/12 03:19:06;;;;;;;48.88;37.85;;;16.40;99.90;;;;;;4993667;28;20041;-50
2022/10/12 03:21:32;;;;;;;45.45;38.58;;;16.50;99.90;;;;;;5024405;28;20104;-53
2022/10/12 03:23:58;;;;;;;47.30;37.67;;;16.60;99.90;;;;;;5021908;28;20509;-49
2022/10/12 03:26:23;;;;;;;44.67;38.78;;;16.60;99.90;;;;;;5012603;28;20042;-50
2022/10/12 03:28:49;;;;;;;51.22;37.25;;;16.70;99.90;;;;;;5022551;28;20175;-50
2022/10/12 03:31:15;;;;;;;47.95;37.03;;;16.60;99.90;;;;;;5024825;28;20025;-50
2022/10/12 03:33:41;;;;;;;44.30;36.50;;;16.70;99.90;;;;;;5025886;28;20380;-50
2022/10/12 03:36:07;;;;;;;47.75;37.58;;;16.70;99.90;;;;;;4983674;28;20125;-50
2022/10/12 03:38:33;;;;;;;54.42;38.95;;;16.70;99.90;;;;;;4998689;28;20045;-52
2022/10/12 03:40:58;;;;;;;56.33;41.15;;;16.70;99.90;;;;;;5021853;28;20030;-49
2022/10/12 03:43:24;;;;;;;49.20;38.33;;;16.60;99.90;;;;;;5021496;28;20502;-49
2022/10/12 03:45:51;;;;;;;67.97;43.40;;;16.50;99.90;;;;;;5003308;28;20083;-50
2022/10/12 03:48:17;;;;;;;47.95;38.35;;;16.50;99.90;;;;;;5018565;28;20044;-50
2022/10/12 03:50:51;;;;;;;48.30;37.13;;;16.50;99.90;;;;;;5035000;28;20428;-53
2022/10/12 03:53:17;;;;;;;51.28;39.17;;;16.40;99.90;;;;;;5018493;28;20049;-50
2022/10/12 03:55:43;;;;;;;50.72;40.22;;;16.50;99.90;;;;;;5018831;28;20025;-53
2022/10/12 03:58:10;;;;;;;47.97;39.63;;;16.50;99.90;;;;;;5022378;28;20029;-49
2022/10/12 04:00:35;;;;;;;53.67;38.67;;;16.50;99.90;;;;;;5020410;28;20021;-52
2022/10/12 04:03:01;;;;;;;51.72;38.08;;;16.50;99.90;;;;;;5016615;28;20021;-51
2022/10/12 04:05:28;;;;;;;52.63;38.75;;;16.40;99.90;;;;;;5013964;28;20056;-49
2022/10/12 04:07:53;;;;;;;46.95;39.22;;;16.20;99.90;;;;;;5021108;28;20049;-55
2022/10/12 04:10:19;;;;;;;49.88;39.03;;;16.10;99.90;;;;;;5016143;28;20454;-50
2022/10/12 04:12:45;;;;;;;47.95;37.83;;;16.10;99.90;;;;;;5022728;28;20474;-52
2022/10/12 04:15:12;;;;;;;46.75;37.97;;;16.00;99.90;;;;;;5016227;28;20104;-53
2022/10/12 04:17:37;;;;;;;49.10;35.88;;;15.80;99.90;;;;;;5023613;28;20404;-52
2022/10/12 04:20:04;;;;;;;46.97;37.35;;;15.60;99.90;;;;;;5021321;28;20029;-51
2022/10/12 04:22:30;;;;;;;47.42;38.65;;;15.70;99.90;;;;;;5026765;28;20029;-53
2022/10/12 04:24:56;;;;;;;51.70;38.08;;;15.70;99.90;;;;;;5018699;28;20117;-53
2022/10/12 04:27:22;;;;;;;48.75;39.60;;;15.70;99.90;;;;;;5019543;28;20096;-50
2022/10/12 04:29:47;;;;;;;55.22;38.67;;;15.70;99.90;;;;;;5018672;28;20069;-48
2022/10/12 04:32:13;;;;;;;48.55;36.88;;;16.00;99.90;;;;;;5020998;28;20017;-53
2022/10/12 04:34:39;;;;;;;49.03;38.05;;;16.10;99.90;;;;;;5016905;28;20043;-51
2022/10/12 04:37:04;;;;;;;49.20;39.58;;;16.20;99.90;;;;;;5023565;28;20112;-52
2022/10/12 04:39:30;;;;;;;46.97;37.60;;;16.30;99.90;;;;;;5030661;28;20041;-50
2022/10/12 04:41:56;;;;;;;48.63;37.05;;;16.40;99.90;;;;;;5037765;28;20033;-48
2022/10/12 04:44:22;;;;;;;46.30;37.78;;;16.40;99.90;;;;;;5019527;28;20108;-53
2022/10/12 04:46:48;;;;;;;52.75;40.10;;;16.50;99.90;;;;;;5021195;28;20045;-52
2022/10/12 04:49:15;;;;;;;53.78;38.55;;;16.50;99.90;;;;;;5013783;28;20034;-51
2022/10/12 04:51:40;;;;;;;48.00;36.13;;;16.50;99.90;;;;;;5020032;28;20033;-55
2022/10/12 04:54:06;;;;;;;45.15;37.45;;;16.40;99.90;;;;;;4978145;28;20091;-50
2022/10/12 04:56:32;;;;;;;50.80;37.60;;;16.30;99.90;;;;;;5012249;28;20504;-48
2022/10/12 04:58:58;;;;;;;49.67;38.30;;;16.20;99.90;;;;;;5019510;28;20033;-50
2022/10/12 05:01:24;;;;;;;47.03;38.42;;;16.20;99.90;;;;;;5021916;28;20536;-51
2022/10/12 05:03:49;;;;;;;49.45;39.60;;;16.20;99.90;;;;;;5006981;28;20034;-51
2022/10/12 05:06:15;;;;;;;46.28;37.53;;;16.10;99.90;;;;;;5014837;28;20124;-51
2022/10/12 05:08:41;;;;;;;54.13;41.85;;;16.00;99.90;;;;;;5033947;28;20133;-49
2022/10/12 05:11:06;;;;;;;54.25;38.58;;;15.90;99.90;;;;;;5016177;28;20026;-50
2022/10/12 05:13:32;;;;;;;53.00;41.05;;;15.90;99.90;;;;;;4979539;28;20038;-51
2022/10/12 05:15:58;;;;;;;47.88;37.72;;;16.00;99.90;;;;;;5023854;28;20038;-48
2022/10/12 05:18:24;;;;;;;57.92;41.35;;;16.10;99.90;;;;;;5015699;28;20069;-50
2022/10/12 05:20:49;;;;;;;53.15;40.17;;;16.10;99.90;;;;;;5033067;28;20084;-52
2022/10/12 05:23:15;;;;;;;51.50;39.45;;;16.10;99.90;;;;;;5014104;28;20026;-52
2022/10/12 05:25:41;;;;;;;57.05;41.53;;;16.10;99.90;;;;;;4995944;28;20092;-49
2022/10/12 05:28:06;;;;;;;52.22;39.47;;;16.20;99.90;;;;;;5012684;28;20042;-50
2022/10/12 05:30:33;;;;;;;53.50;39.83;;;16.20;99.90;;;;;;5019844;28;20111;-52
2022/10/12 05:32:59;;;;;;;53.88;40.05;;;16.10;99.90;;;;;;5019422;28;20034;-53
2022/10/12 05:35:24;;;;;;;55.42;41.05;;;16.00;99.90;;;;;;5020403;28;20116;-52
2022/10/12 05:37:50;;;;;;;50.17;40.80;;;16.20;99.90;;;;;;5029687;28;20486;-53
2022/10/12 05:40:16;;;;;;;56.53;39.38;;;16.40;99.90;;;;;;5015726;28;20091;-52
2022/10/12 05:42:43;;;;;;;54.13;40.83;;;16.60;99.90;;;;;;5031346;28;20040;-52
2022/10/12 05:45:10;;;;;;;54.10;39.75;;;16.80;99.90;;;;;;5022234;28;20034;-52
2022/10/12 05:47:36;;;;;;;47.75;38.65;;;;;;;;;;5015040;28;20397;-52
2022/10/12 05:50:02;;;;;;;54.15;41.05;;;16.80;99.90;;;;;;5012775;28;20033;-54
2022/10/12 05:52:28;;;;;;;53.22;40.00;;;16.60;99.90;;;;;;5016518;28;20436;-52
2022/10/12 05:54:54;;;;;;;55.20;40.35;;;16.80;99.90;;;;;;5017063;28;20112;-52
2022/10/12 05:57:19;;;;;;;51.63;38.45;;;17.10;99.90;;;;;;5031864;28;20034;-53
2022/10/12 05:59:45;;;;;;;59.33;44.45;;;17.50;99.90;;;;;;5017347;28;20030;-53
2022/10/12 06:02:15;;;;;;;57.80;43.20;;;;;;;;;;5017756;28;20108;-53
2022/10/12 06:04:41;;;;;;;46.15;36.42;;;18.40;99.90;;;;;;5017279;28;20105;-53
2022/10/12 06:07:07;;;;;;;50.47;39.13;;;18.60;99.90;;;;;;5016743;28;20083;-54
2022/10/12 06:09:33;;;;;;;47.88;37.58;;;18.70;99.90;;;;;;5017295;28;20026;-52
2022/10/12 06:11:59;;;;;;;51.47;39.20;;;18.60;99.90;;;;;;5017101;28;20064;-52
2022/10/12 06:14:25;;;;;;;47.03;37.00;;;18.40;99.90;;;;;;5016615;28;20076;-53
2022/10/12 06:16:50;;;;;;;45.75;36.10;;;18.20;99.90;;;;;;5031198;28;20099;-52
2022/10/12 06:19:16;;;;;;;49.28;36.15;;;18.30;99.90;;;;;;5016744;28;20065;-53
2022/10/12 06:21:42;;;;;;;46.28;37.35;;;18.70;99.90;;;;;;5031532;28;20489;-54
2022/10/12 06:24:08;;;;;;;49.03;38.05;;;18.80;99.90;;;;;;5016988;28;20057;-53
2022/10/12 06:26:33;;;;;;;47.33;37.22;;;19.20;99.90;;;;;;5016449;28;20045;-53
2022/10/12 06:28:59;;;;;;;46.63;37.60;;;19.60;99.90;;;;;;5013641;28;20038;-52
2022/10/12 06:31:26;;;;;;;48.95;38.20;;;18.80;99.90;;;;;;5012084;28;20032;-53
2022/10/12 06:33:52;;;;;;;47.80;37.83;;;18.70;99.90;;;;;;4997193;28;20058;-53
2022/10/12 06:36:19;;;;;;;52.20;40.35;;;18.70;99.90;;;;;;4997037;28;20031;-52
2022/10/12 06:38:45;;;;;;;46.75;37.38;;;18.90;99.90;;;;;;4996925;28;20026;-53
2022/10/12 06:41:11;;;;;;;63.92;37.97;;;18.70;99.90;;;;;;4996707;28;20375;-53
2022/10/12 06:43:37;;;;;;;50.03;39.42;;;18.50;99.90;;;;;;4996831;28;20038;-54
2022/10/12 06:46:02;;;;;;;48.00;38.70;;;18.40;99.90;;;;;;5011640;28;20030;-54
2022/10/12 06:48:29;;;;;;;45.15;36.50;;;18.80;99.90;;;;;;5011075;28;20058;-52
2022/10/12 06:50:55;;;;;;;45.90;37.05;;;19.20;99.90;;;;;;4996720;28;20037;-54
2022/10/12 06:53:21;;;;;;;46.97;37.08;;;19.50;99.90;;;;;;4996188;28;20026;-53
2022/10/12 06:55:47;;;;;;;46.28;37.00;;;;;;;;;;4996659;28;20080;-51
2022/10/12 06:58:13;;;;;;;63.00;36.53;;;20.60;99.90;;;;;;5010878;28;20482;-52
2022/10/12 07:00:38;;;;;;;44.88;36.55;;;21.00;99.90;;;;;;4995969;28;20031;-53
2022/10/12 07:03:04;;;;;;;42.03;34.15;;;21.30;99.90;;;;;;4996059;28;20054;-53
2022/10/12 07:05:30;;;;;;;41.53;34.33;;;22.00;99.90;;;;;;4996401;28;20034;-52
2022/10/12 07:07:56;;;;;;;43.55;35.33;;;21.60;99.90;;;;;;4994416;28;20043;-52
2022/10/12 07:10:23;;;;;;;50.28;35.83;;;;;;;;;;4998885;28;20037;-53
2022/10/12 07:12:49;;;;;;;42.95;34.08;;;;;;;;;;5015758;28;20489;-52
2022/10/12 07:15:15;;;;;;;46.38;35.25;;;21.00;99.90;;;;;;5014705;28;20033;-53
2022/10/12 07:17:41;;;;;;;43.85;35.55;;;;;;;;;;4997220;28;20053;-53
2022/10/12 07:20:07;;;;;;;41.33;35.60;;;22.50;99.90;;;;;;5030177;28;20038;-52
2022/10/12 07:22:33;;;;;;;48.60;35.88;;;22.40;99.90;;;;;;5015543;28;20480;-52
2022/10/12 07:24:59;;;;;;;43.30;35.22;;;;;;;;;;5015578;28;20080;-53
2022/10/12 07:27:25;;;;;;;46.42;37.20;;;;;;;;;;5019220;28;20044;-52
2022/10/12 07:29:51;;;;;;;48.42;38.20;;;20.80;99.90;;;;;;5020644;28;20470;-54
2022/10/12 07:32:17;;;;;;;69.10;50.03;;;20.60;99.90;;;;;;5035049;28;20048;-53
2022/10/12 07:34:43;;;;;;;46.17;35.92;;;;;;;;;;5038143;28;20113;-53
2022/10/12 07:37:10;;;;;;;48.25;36.50;;;20.20;99.90;;;;;;5023248;28;20038;-54
2022/10/12 07:39:36;;;;;;;45.67;36.03;;;20.00;99.90;;;;;;5015613;28;20595;-53
2022/10/12 07:42:02;;;;;;;51.50;37.70;;;19.90;99.90;;;;;;5019632;28;20061;-53
2022/10/12 07:44:29;;;;;;;45.88;36.03;;;20.20;99.90;;;;;;5025528;28;20473;-53
2022/10/12 07:46:55;;;;;;;51.53;34.20;;;;;;;;;;5019012;28;20034;-53
2022/10/12 07:49:21;;;;;;;44.83;35.25;;;21.10;99.90;;;;;;5024139;28;20064;-54
2022/10/12 07:51:47;;;;;;;43.80;34.95;;;21.10;99.90;;;;;;5015032;28;20060;-53
2022/10/12 07:54:13;;;;;;;40.42;33.70;;;20.90;99.90;;;;;;5023037;28;20648;-53
2022/10/12 07:56:39;;;;;;;52.53;35.30;;;21.20;99.90;;;;;;5024788;28;20104;-54
2022/10/12 07:59:05;;;;;;;47.97;33.33;;;21.90;99.90;;;;;;5024679;28;20106;-54
2022/10/12 08:01:31;;;;;;;53.92;39.17;;;;;;;;;;5022994;28;20022;-53
2022/10/12 08:03:58;;;;;;;45.42;35.28;;;;;;;;;;5017894;28;20022;-52
2022/10/12 08:06:26;;;;;;;56.78;42.15;;;;;;;;;;5020356;28;20044;-53
2022/10/12 08:08:52;;;;;;;39.60;33.47;;;24.10;99.90;;;;;;5013991;28;20042;-53
2022/10/12 08:11:18;;;;;;;45.72;32.85;;;24.40;99.90;;;;;;5013901;28;20116;-53
2022/10/12 08:13:44;;;;;;;41.63;32.10;;;25.00;99.90;;;;;;5009413;28;20385;-48
2022/10/12 08:16:12;;;;;;;44.17;32.50;;;;;;;;;;5012108;28;20029;-50
2022/10/12 08:18:38;;;;;;;53.50;38.28;;;24.40;99.90;;;;;;5011236;28;20489;-51
2022/10/12 08:21:05;;;;;;;38.50;31.45;;;23.70;99.90;;;;;;5023760;28;20035;-53
2022/10/12 08:23:31;;;;;;;44.13;33.28;;;24.20;99.90;;;;;;5012029;28;20108;-52
2022/10/12 08:25:57;;;;;;;40.15;32.30;;;;;;;;;;5015660;28;20099;-53
2022/10/12 08:28:24;;;;;;;43.17;33.20;;;25.10;99.90;;;;;;5024469;28;20038;-54
2022/10/12 08:30:50;;;;;;;44.60;33.22;;;;;;;;;;5012851;28;20029;-53
2022/10/12 08:33:17;;;;;;;40.75;32.83;;;;;;;;;;5039021;28;20037;-53
2022/10/12 08:35:43;;;;;;;49.33;34.15;;;25.20;99.90;;;;;;5016471;28;20026;-54
2022/10/12 08:38:10;;;;;;;36.80;32.80;;;25.30;99.90;;;;;;5028898;28;20042;-54
2022/10/12 08:40:56;;;;;;;38.28;33.55;;;25.70;99.90;;;;;;5022741;28;20424;-52
2022/10/12 08:44:01;;;;;;;43.90;32.88;;;25.50;99.90;;;;;;5023959;28;20032;-54
2022/10/12 08:46:28;;;;;;;40.30;34.13;;;26.00;99.90;;;;;;5020249;28;20381;-53
2022/10/12 08:49:17;;;;;;;39.00;33.78;;;25.20;99.90;;;;;;5023024;28;20041;-52
2022/10/12 08:51:54;;;;;;;44.83;34.67;;;24.80;99.90;;;;;;5025512;28;20017;-55
2022/10/12 08:54:24;;;;;;;40.05;34.45;;;25.30;99.90;;;;;;5026919;28;20072;-52
2022/10/12 08:56:53;;;;;;;41.75;34.17;;;25.10;99.90;;;;;;5024960;28;20386;-52
2022/10/12 08:59:19;;;;;;;37.17;33.17;;;25.10;99.90;;;;;;5028567;28;20030;-56
2022/10/12 09:01:57;;;;;;;41.03;34.50;;;24.80;99.90;;;;;;5029780;28;20036;-54
2022/10/12 09:04:38;;;;;;;40.95;34.53;;;24.70;99.90;;;;;;5026369;28;20165;-56
2022/10/12 09:07:27;;;;;;;39.30;34.85;;;24.80;99.90;;;;;;5049082;28;20497;-55
2022/10/12 09:10:18;;;;;;;45.67;35.67;;;24.60;99.90;;;;;;5021859;28;20083;-52
2022/10/12 09:13:38;;;;;;;45.65;37.15;;;24.00;99.90;;;;;;5011434;28;20030;-56
2022/10/12 09:16:11;;;;;;;41.67;36.00;;;23.00;99.90;;;;;;5009155;28;20067;-54
2022/10/12 09:18:42;;;;;;;46.10;37.40;;;;;;;;;;5016082;28;20046;-54
2022/10/12 09:21:11;;;;;;;45.88;36.63;;;;;;;;;;5021310;28;20558;-55
2022/10/12 09:23:43;;;;;;;60.88;38.28;;;;;;;;;;5018129;28;20133;-52
2022/10/12 09:26:08;;;;;;;;;;;;;;;;;;5015810;28;20148;-56
2022/10/12 09:28:58;;;;;;;44.08;37.05;;;;;;;;;;5015264;28;20000;-54
2022/10/12 09:31:56;;;;;;;46.38;36.47;;;23.40;99.90;;;;;;4918874;29;20488;-53
2022/10/12 09:34:23;;;;;;;44.72;38.83;;;23.20;99.90;;;;;;4917598;29;20405;-55
2022/10/12 09:36:49;;;;;;;45.83;38.20;;;23.30;99.90;;;;;;4917326;29;20060;-53
2022/10/12 09:39:16;;;;;;;49.70;38.85;;;23.00;99.90;;;;;;4917422;29;20079;-57
2022/10/12 09:41:44;;;;;;;45.05;38.42;;;23.20;99.90;;;;;;4887931;29;20036;-56
2022/10/12 09:44:55;;;;;;;43.20;37.50;;;23.20;99.90;;;;;;4918683;29;20048;-55
2022/10/12 09:47:26;;;;;;;54.63;39.80;;;23.10;99.90;;;;;;4881063;29;20056;-54
2022/10/12 09:49:57;;;;;;;43.33;38.28;;;23.00;99.90;;;;;;4864420;29;20057;-54
2022/10/12 09:52:35;;;;;;;47.47;39.13;;;23.40;99.90;;;;;;4842624;29;20042;-54
2022/10/12 09:55:22;;;;;;;53.63;40.85;;;23.40;99.90;;;;;;4841713;29;20034;-55
2022/10/12 09:57:55;;;;;;;45.53;38.58;;;23.80;99.90;;;;;;4843357;29;20071;-54
2022/10/12 10:00:22;;;;;;;48.22;38.78;;;24.40;99.90;;;;;;4849780;29;20035;-56
2022/10/12 10:02:50;;;;;;;47.10;40.45;;;25.20;99.90;;;;;;4857314;29;20471;-57
2022/10/12 10:05:30;;;;;;;48.42;37.63;;;;;;;;;;4843186;29;20038;-55
2022/10/12 10:08:16;;;;;;;42.70;38.08;;;;;;;;;;4858612;29;20076;-51
2022/10/12 10:10:52;;;;;;;43.95;37.58;;;25.90;99.90;;;;;;4898434;29;20485;-55
2022/10/12 10:13:20;;;;;;;43.78;37.75;;;;;;;;;;4894915;29;20067;-58
2022/10/12 10:15:48;;;;;;;46.80;37.95;;;26.20;99.90;;;;;;4898547;29;20560;-56
2022/10/12 10:18:29;;;;;;;46.67;38.20;;;;;;;;;;4926665;29;20060;-56
2022/10/12 10:20:57;;;;;;;47.75;37.83;;;26.80;99.90;;;;;;4933857;29;20036;-56
2022/10/12 10:23:26;;;;;;;46.28;38.83;;;26.60;99.90;;;;;;4962794;28;20053;-55
2022/10/12 10:26:12;;;;;;;41.75;36.95;;;26.70;99.90;;;;;;5015153;28;20026;-56
2022/10/12 10:28:41;;;;;;;48.28;37.85;;;26.50;99.90;;;;;;4998165;28;20690;-58
2022/10/12 10:31:22;;;;;;;42.47;37.90;;;27.10;99.90;;;;;;5016162;28;20025;-58
2022/10/12 10:34:11;;;;;;;39.43;33.40;;;26.60;99.90;;;;;;5019321;28;20476;-56
2022/10/12 10:36:48;;;;;;;39.58;34.90;;;26.30;99.90;;;;;;5018195;28;20259;-59
2022/10/12 10:39:27;;;;;;;37.40;33.13;;;26.70;99.90;;;;;;5015135;28;20148;-58
2022/10/12 10:41:54;;;;;;;39.10;34.00;;;;;;;;;;5016028;28;20030;-55
2022/10/12 10:44:32;;;;;;;40.35;33.97;;;27.10;99.90;;;;;;5016150;28;20079;-56
2022/10/12 10:47:18;;;;;;;35.92;30.60;;;26.80;99.90;;;;;;5016250;28;20041;-55
2022/10/12 10:49:49;;;;;;;38.80;31.58;;;26.10;99.90;;;;;;4965429;28;20049;-55
2022/10/12 10:52:30;;;;;;;35.85;29.70;;;26.10;99.90;;;;;;5015997;28;20038;-59
2022/10/12 10:55:16;;;;;;;32.23;28.93;;;26.80;99.90;;;;;;5016387;28;20022;-60
2022/10/12 10:58:02;;;;;;;37.90;31.15;;;;;;;;;;5014390;28;20271;-57
2022/10/12 11:00:30;;;;;;;36.70;30.55;;;;;;;;;;5016426;28;20076;-55
2022/10/12 11:03:00;;;;;;;41.40;35.33;;;27.10;99.90;;;;;;5015720;28;20065;-58
2022/10/12 11:05:32;;;;;;;43.15;34.33;;;26.70;99.90;;;;;;5015719;28;20034;-57
2022/10/12 11:08:20;;;;;;;46.83;35.92;;;26.40;99.90;;;;;;5016028;28;20038;-52
2022/10/12 11:11:22;;;;;;;41.53;36.53;;;25.30;99.90;;;;;;5016402;28;20081;-58
2022/10/12 11:13:57;;;;;;;38.30;33.28;;;25.60;99.90;;;;;;5015734;28;20030;-57
2022/10/12 11:16:41;;;;;;;35.42;31.67;;;25.80;99.90;;;;;;5015554;28;20026;-61
2022/10/12 11:19:25;;;;;;;40.22;33.65;;;25.70;99.90;;;;;;5030003;28;20042;-56
2022/10/12 11:21:55;;;;;;;37.05;33.00;;;25.10;99.90;;;;;;5015997;28;20026;-54
2022/10/12 11:24:44;;;;;;;39.75;33.20;;;25.00;99.90;;;;;;5015442;28;20537;-58
2022/10/12 11:27:26;;;;;;;37.35;33.05;;;24.80;99.90;;;;;;5015111;28;20032;-56
2022/10/12 11:29:57;;;;;;;43.75;33.72;;;24.70;99.90;;;;;;5015273;28;20042;-53
2022/10/12 11:33:00;;;;;;;39.35;33.47;;;24.70;99.90;;;;;;5015468;28;20026;-58
2022/10/12 11:35:28;;;;;;;38.33;32.60;;;;;;;;;;5033077;28;20041;-58
2022/10/12 11:38:00;;;;;;;42.50;33.60;;;24.10;99.90;;;;;;5032817;28;20035;-57
2022/10/12 11:40:32;;;;;;;38.72;34.03;;;23.80;99.90;;;;;;5032761;28;20587;-58
2022/10/12 11:43:02;;;;;;;;;;;23.30;99.90;;;;;;5033227;28;20041;-57
2022/10/12 11:45:39;;;;;;;38.78;32.70;;;23.50;99.90;;;;;;5032959;28;19984;-55
2022/10/12 11:48:09;;;;;;;38.70;32.85;;;;;;;;;;5031730;28;20073;-55
2022/10/12 11:50:39;;;;;;;42.85;34.80;;;23.80;99.90;;;;;;5033009;28;20465;-59
2022/10/12 11:53:31;;;;;;;39.90;33.78;;;23.80;99.90;;;;;;5032550;28;20041;-53
2022/10/12 11:56:23;;;;;;;38.13;33.00;;;23.70;99.90;;;;;;5032658;28;20385;-59
2022/10/12 11:58:57;;;;;;;36.00;32.10;;;23.80;99.90;;;;;;5032451;28;20034;-60
2022/10/12 12:01:44;;;;;;;39.20;32.95;;;23.60;99.90;;;;;;4999700;28;20128;-55
2022/10/12 12:04:19;;;;;;;41.72;33.35;;;;;;;;;;5032375;28;20128;-53
2022/10/12 12:06:52;;;;;;;37.25;31.23;;;23.20;99.90;;;;;;5032245;28;20036;-55
2022/10/12 12:09:34;;;;;;;41.58;32.00;;;23.40;99.90;;;;;;5029458;28;20041;-58
2022/10/12 12:12:08;;;;;;;38.67;32.65;;;23.50;99.90;;;;;;5021251;28;20053;-60
2022/10/12 12:14:45;;;;;;;36.70;30.83;;;23.50;99.90;;;;;;5015077;28;20053;-59
2022/10/12 12:17:22;;;;;;;34.42;30.40;;;23.60;99.90;;;;;;5014385;28;20064;-53
2022/10/12 12:19:54;;;;;;;36.38;29.70;;;23.50;99.90;;;;;;5014782;28;20446;-55
2022/10/12 12:22:29;;;;;;;32.95;29.70;;;23.20;99.90;;;;;;5014528;28;20018;-57
2022/10/12 12:25:16;;;;;;;36.90;29.85;;;23.20;99.90;;;;;;5014130;28;20030;-59
2022/10/12 12:27:54;;;;;;;35.10;31.30;;;22.90;99.90;;;;;;5013817;28;20516;-58
2022/10/12 12:30:29;;;;;;;35.75;30.38;;;22.60;99.90;;;;;;5013850;28;20026;-55
2022/10/12 12:33:04;;;;;;;41.53;32.67;;;22.60;99.90;;;;;;5014112;28;20033;-53
2022/10/12 12:35:38;;;;;;;39.83;30.42;;;22.50;99.90;;;;;;5014063;28;20445;-59
2022/10/12 12:38:06;;;;;;;35.05;29.23;;;22.50;99.90;;;;;;5014096;28;20026;-60
2022/10/12 12:40:32;;;;;;;33.42;29.52;;;22.40;99.90;;;;;;5014153;28;20383;-60
2022/10/12 12:43:18;;;;;;;32.58;29.15;;;22.30;99.90;;;;;;5013728;28;20560;-57
2022/10/12 12:45:55;;;;;;;33.58;29.10;;;22.30;99.90;;;;;;5013655;28;20030;-63
2022/10/12 12:48:41;;;;;;;35.03;30.30;;;22.40;99.90;;;;;;5014165;28;20129;-57
2022/10/12 12:51:30;;;;;;;34.47;28.40;;;22.40;99.90;;;;;;5012915;28;20037;-55
2022/10/12 12:53:58;;;;;;;33.70;28.08;;;;;;;;;;5019589;28;20472;-57
2022/10/12 12:56:27;;;;;;;29.27;24.20;;;22.30;99.90;;;;;;5023298;28;20511;-57
2022/10/12 12:59:22;;;;;;;27.05;24.15;;;22.50;99.90;;;;;;5032442;28;20030;-58